Time;durP1;ratioP1;P1;durP2;ratioP2;P2;SDS_P1;SDS_P2;PMS_P1;PMS_P2;Temp;Humidity;BMP_temperature;BMP_pressure;BME280_temperature;BME280_humidity;BME280_pressure;Samples;Min_cycle;Max_cycle;Signal;HPM_P1;HPM_P2
2021/06/03 00:02:06;;;;;;;13.25;7.25;;;19.30;99.90;;;;;;5072167;28;20028;-60
2021/06/03 00:04:32;;;;;;;10.23;7.10;;;19.20;99.90;;;;;;5077759;28;20064;-61
2021/06/03 00:06:57;;;;;;;13.10;6.65;;;19.20;99.90;;;;;;5072261;28;20421;-61
2021/06/03 00:09:24;;;;;;;13.05;6.82;;;19.10;99.90;;;;;;5072822;28;20086;-60
2021/06/03 00:11:49;;;;;;;11.75;7.45;;;19.20;99.90;;;;;;5072165;28;20448;-62
2021/06/03 00:14:16;;;;;;;16.10;6.85;;;19.20;99.90;;;;;;5073456;28;20032;-61
2021/06/03 00:16:42;;;;;;;11.13;6.72;;;19.20;99.90;;;;;;5070805;28;20029;-62
2021/06/03 00:19:08;;;;;;;11.15;7.43;;;19.30;99.90;;;;;;5087809;28;20024;-61
2021/06/03 00:21:36;;;;;;;13.25;7.25;;;19.30;99.90;;;;;;5070343;28;20037;-60
2021/06/03 00:24:03;;;;;;;12.23;7.20;;;19.20;99.90;;;;;;5064520;28;20469;-62
2021/06/03 00:26:29;;;;;;;11.02;6.82;;;19.10;99.90;;;;;;5071817;28;20057;-61
2021/06/03 00:28:54;;;;;;;11.35;7.38;;;19.10;99.90;;;;;;5075973;28;20020;-61
2021/06/03 00:31:21;;;;;;;10.73;7.10;;;19.00;99.90;;;;;;5076592;28;20042;-60
2021/06/03 00:33:46;;;;;;;12.25;7.25;;;19.00;99.90;;;;;;5071145;28;20096;-62
2021/06/03 00:36:13;;;;;;;8.50;6.65;;;18.90;99.90;;;;;;5071689;28;20498;-62
2021/06/03 00:38:40;;;;;;;11.55;6.75;;;18.90;99.90;;;;;;5071930;28;20041;-61
2021/06/03 00:41:06;;;;;;;11.27;6.78;;;18.80;99.90;;;;;;5076388;28;20389;-60
2021/06/03 00:43:32;;;;;;;13.02;7.03;;;18.80;99.90;;;;;;5069688;28;20032;-61
2021/06/03 00:45:58;;;;;;;13.10;6.43;;;18.70;99.90;;;;;;5066360;28;20032;-61
2021/06/03 00:48:24;;;;;;;10.40;7.10;;;18.60;99.90;;;;;;5083867;28;20394;-62
2021/06/03 00:50:54;;;;;;;11.10;7.18;;;18.60;99.90;;;;;;5072073;28;20035;-60
2021/06/03 00:53:20;;;;;;;9.30;6.63;;;18.60;99.90;;;;;;5070637;28;20130;-63
2021/06/03 00:55:49;;;;;;;17.27;7.13;;;18.60;99.90;;;;;;5071702;28;20123;-62
2021/06/03 00:58:15;;;;;;;12.57;6.85;;;18.50;99.90;;;;;;5082627;28;20032;-63
2021/06/03 01:00:41;;;;;;;9.48;6.95;;;18.40;99.90;;;;;;5072686;28;20040;-61
2021/06/03 01:03:07;;;;;;;9.07;6.90;;;18.40;99.90;;;;;;5071393;28;20398;-60
2021/06/03 01:05:45;;;;;;;9.75;7.07;;;18.40;99.90;;;;;;5077671;28;20367;-60
2021/06/03 01:08:15;;;;;;;9.52;7.00;;;18.30;99.90;;;;;;5075154;28;20028;-61
2021/06/03 01:11:03;;;;;;;12.30;6.75;;;18.30;99.90;;;;;;5072915;28;20036;-61
2021/06/03 01:13:49;;;;;;;10.48;7.18;;;18.30;99.90;;;;;;5063712;28;20035;-61
2021/06/03 01:16:15;;;;;;;;;;;18.20;99.90;;;;;;5072241;28;20036;-60
2021/06/03 01:18:42;;;;;;;8.52;7.20;;;18.20;99.90;;;;;;5071216;28;19908;-60
2021/06/03 01:21:30;;;;;;;13.07;7.40;;;18.20;99.90;;;;;;5071928;28;20037;-60
2021/06/03 01:24:11;;;;;;;10.05;7.32;;;18.20;99.90;;;;;;5065719;28;20100;-62
2021/06/03 01:26:37;;;;;;;10.00;7.65;;;18.20;99.90;;;;;;5071381;28;20068;-62
2021/06/03 01:29:03;;;;;;;9.77;7.50;;;18.10;99.90;;;;;;5070030;28;20402;-62
2021/06/03 01:31:30;;;;;;;12.75;7.63;;;18.10;99.90;;;;;;5076215;28;20458;-61
2021/06/03 01:33:56;;;;;;;11.57;8.35;;;18.00;99.90;;;;;;5080517;28;20039;-60
2021/06/03 01:36:22;;;;;;;11.85;7.82;;;18.00;99.90;;;;;;5074994;28;20025;-61
2021/06/03 01:38:48;;;;;;;11.25;7.82;;;17.90;99.90;;;;;;5079931;28;20135;-62
2021/06/03 01:41:14;;;;;;;13.02;8.07;;;17.90;99.90;;;;;;5081664;28;20111;-64
2021/06/03 01:43:43;;;;;;;17.33;8.75;;;17.90;99.90;;;;;;5074373;28;20377;-61
2021/06/03 01:46:10;;;;;;;14.65;8.65;;;17.90;99.90;;;;;;5051755;28;20041;-61
2021/06/03 01:48:36;;;;;;;11.45;8.48;;;17.90;99.90;;;;;;5069377;28;20470;-61
2021/06/03 01:51:07;;;;;;;13.98;8.82;;;17.90;99.90;;;;;;5078273;28;20478;-60
2021/06/03 01:53:33;;;;;;;15.10;9.15;;;18.00;99.90;;;;;;5060357;28;20098;-61
2021/06/03 01:56:05;;;;;;;14.05;8.85;;;17.90;99.90;;;;;;5077589;28;20032;-60
2021/06/03 01:58:31;;;;;;;15.48;8.32;;;17.90;99.90;;;;;;5069982;28;20032;-61
2021/06/03 02:00:57;;;;;;;16.23;8.75;;;17.90;99.90;;;;;;5070772;28;20037;-62
2021/06/03 02:03:25;;;;;;;18.00;9.00;;;17.90;99.90;;;;;;5069162;28;20057;-62
2021/06/03 02:05:51;;;;;;;18.25;8.80;;;17.90;99.90;;;;;;5077508;28;20021;-61
2021/06/03 02:08:17;;;;;;;12.85;9.00;;;18.00;99.90;;;;;;5077872;28;20029;-63
2021/06/03 02:10:43;;;;;;;14.52;8.77;;;18.00;99.90;;;;;;5070016;28;20386;-61
2021/06/03 02:13:17;;;;;;;20.83;9.00;;;18.00;99.90;;;;;;5069708;28;20492;-61
2021/06/03 02:16:13;;;;;;;12.80;9.27;;;18.00;99.90;;;;;;5066306;28;20163;-60
2021/06/03 02:19:05;;;;;;;14.95;9.38;;;18.00;99.90;;;;;;5060650;28;20024;-61
2021/06/03 02:21:34;;;;;;;17.38;9.50;;;17.90;99.90;;;;;;5063390;28;20442;-62
2021/06/03 02:24:01;;;;;;;14.65;10.15;;;17.90;99.90;;;;;;5064909;28;20033;-62
2021/06/03 02:26:27;;;;;;;15.60;9.85;;;17.90;99.90;;;;;;5070286;28;20052;-60
2021/06/03 02:28:53;;;;;;;13.90;8.95;;;17.90;99.90;;;;;;5073083;28;20111;-63
2021/06/03 02:31:19;;;;;;;12.55;8.75;;;17.90;99.90;;;;;;5074200;28;20055;-61
2021/06/03 02:33:46;;;;;;;14.65;9.90;;;17.90;99.90;;;;;;5077914;28;20382;-62
2021/06/03 02:36:12;;;;;;;12.57;9.65;;;18.00;99.90;;;;;;5070798;28;20431;-61
2021/06/03 02:38:40;;;;;;;13.75;9.02;;;18.00;99.90;;;;;;5070194;28;20044;-61
2021/06/03 02:41:08;;;;;;;12.52;9.48;;;18.00;99.90;;;;;;5071400;28;20085;-63
2021/06/03 02:43:36;;;;;;;12.15;8.95;;;17.90;99.90;;;;;;5067540;28;20499;-62
2021/06/03 02:46:03;;;;;;;18.88;12.00;;;18.00;99.90;;;;;;5073209;28;20477;-60
2021/06/03 02:48:29;;;;;;;20.27;12.65;;;18.00;99.90;;;;;;5076179;28;20032;-61
2021/06/03 02:50:55;;;;;;;17.85;11.18;;;18.00;99.90;;;;;;5084736;28;20031;-60
2021/06/03 02:53:21;;;;;;;15.27;10.65;;;18.10;99.90;;;;;;5084162;28;20036;-62
2021/06/03 02:55:47;;;;;;;39.30;13.85;;;18.00;99.90;;;;;;5076775;28;20047;-60
2021/06/03 02:58:13;;;;;;;18.48;11.13;;;18.00;99.90;;;;;;5088683;28;20028;-61
2021/06/03 03:00:39;;;;;;;14.90;10.05;;;18.00;99.90;;;;;;5080745;28;20121;-61
2021/06/03 03:03:08;;;;;;;12.07;9.80;;;17.90;99.90;;;;;;5073548;28;20043;-61
2021/06/03 03:05:35;;;;;;;18.15;10.95;;;17.90;99.90;;;;;;5074885;28;20020;-62
2021/06/03 03:08:01;;;;;;;15.52;11.07;;;17.90;99.90;;;;;;5074186;28;20032;-61
2021/06/03 03:10:30;;;;;;;16.05;11.00;;;17.80;99.90;;;;;;5074121;28;20123;-63
2021/06/03 03:12:57;;;;;;;14.68;10.77;;;17.80;99.90;;;;;;5067650;28;20036;-60
2021/06/03 03:15:23;;;;;;;16.63;11.23;;;17.80;99.90;;;;;;5091535;28;20047;-61
2021/06/03 03:17:49;;;;;;;15.35;11.27;;;17.80;99.90;;;;;;5076660;28;20107;-61
2021/06/03 03:20:17;;;;;;;17.50;10.80;;;17.80;99.90;;;;;;5076364;28;20120;-61
2021/06/03 03:22:43;;;;;;;18.20;11.10;;;17.80;99.90;;;;;;5071398;28;20375;-62
2021/06/03 03:25:11;;;;;;;16.88;11.40;;;17.80;99.90;;;;;;5081774;28;20128;-60
2021/06/03 03:27:39;;;;;;;19.83;11.68;;;17.80;99.90;;;;;;5073137;28;20744;-60
2021/06/03 03:30:06;;;;;;;23.40;13.18;;;17.70;99.90;;;;;;5068628;28;20460;-60
2021/06/03 03:32:32;;;;;;;21.48;13.48;;;17.70;99.90;;;;;;5075496;28;20067;-62
2021/06/03 03:35:01;;;;;;;20.02;13.35;;;17.80;99.90;;;;;;5088875;28;20047;-62
2021/06/03 03:37:28;;;;;;;19.13;12.23;;;17.80;99.90;;;;;;5092190;28;20389;-62
2021/06/03 03:39:55;;;;;;;22.63;14.52;;;17.70;99.90;;;;;;5085423;28;20097;-60
2021/06/03 03:42:21;;;;;;;21.75;14.00;;;17.70;99.90;;;;;;5079636;28;20523;-62
2021/06/03 03:44:47;;;;;;;21.50;14.15;;;17.70;99.90;;;;;;5091672;28;20028;-61
2021/06/03 03:47:12;;;;;;;22.58;14.55;;;17.70;99.90;;;;;;5088722;28;20074;-60
2021/06/03 03:49:39;;;;;;;27.67;15.18;;;17.70;99.90;;;;;;5089447;28;20357;-62
2021/06/03 03:52:05;;;;;;;30.88;14.27;;;17.70;99.90;;;;;;5093719;28;20032;-60
2021/06/03 03:54:31;;;;;;;20.08;12.90;;;17.80;99.90;;;;;;5077726;28;20116;-61
2021/06/03 03:56:57;;;;;;;17.73;12.50;;;17.80;99.90;;;;;;5074547;28;20442;-60
2021/06/03 03:59:23;;;;;;;18.45;12.60;;;17.80;99.90;;;;;;5086894;28;20063;-62
2021/06/03 04:01:52;;;;;;;23.45;12.82;;;17.80;99.90;;;;;;5087204;28;20032;-61
2021/06/03 04:04:20;;;;;;;22.90;13.68;;;17.70;99.90;;;;;;5083783;28;20533;-61
2021/06/03 04:06:45;;;;;;;20.77;12.73;;;17.70;99.90;;;;;;5092288;28;20065;-63
2021/06/03 04:09:11;;;;;;;19.98;12.90;;;17.80;99.90;;;;;;5092410;28;20389;-61
2021/06/03 04:11:37;;;;;;;20.48;14.00;;;17.90;99.90;;;;;;5092814;28;20028;-60
2021/06/03 04:14:03;;;;;;;19.42;13.25;;;17.90;99.90;;;;;;5079634;28;20564;-60
2021/06/03 04:16:28;;;;;;;21.92;12.65;;;17.80;99.90;;;;;;5079437;28;20032;-60
2021/06/03 04:18:54;;;;;;;30.40;13.38;;;17.80;99.90;;;;;;5083669;28;20091;-62
2021/06/03 04:21:20;;;;;;;20.02;12.43;;;17.90;99.90;;;;;;5078224;28;20121;-63
2021/06/03 04:23:46;;;;;;;20.52;13.60;;;17.90;99.90;;;;;;5077652;28;20102;-59
2021/06/03 04:26:12;;;;;;;22.23;14.50;;;17.90;99.90;;;;;;5086324;28;20116;-60
2021/06/03 04:28:38;;;;;;;17.85;13.40;;;18.00;99.90;;;;;;5091393;28;20028;-60
2021/06/03 04:31:04;;;;;;;23.42;13.65;;;17.90;99.90;;;;;;5086099;28;20040;-63
2021/06/03 04:33:30;;;;;;;25.75;14.07;;;17.90;99.90;;;;;;5082148;28;20035;-62
2021/06/03 04:35:56;;;;;;;30.50;13.57;;;17.90;99.90;;;;;;5090758;28;20028;-62
2021/06/03 04:38:22;;;;;;;28.27;15.35;;;18.00;99.90;;;;;;5079369;28;20513;-60
2021/06/03 04:40:48;;;;;;;25.05;15.23;;;18.00;99.90;;;;;;5075957;28;20055;-61
2021/06/03 04:43:14;;;;;;;30.30;15.75;;;18.00;99.90;;;;;;5080859;28;20080;-61
2021/06/03 04:45:40;;;;;;;28.25;16.30;;;18.00;99.90;;;;;;5076563;28;20029;-61
2021/06/03 04:48:08;;;;;;;25.52;17.08;;;18.00;99.90;;;;;;5086928;28;20608;-61
2021/06/03 04:50:35;;;;;;;23.25;16.83;;;18.00;99.90;;;;;;5091703;28;20474;-62
2021/06/03 04:53:01;;;;;;;28.85;18.45;;;18.10;99.90;;;;;;5091300;28;20020;-62
2021/06/03 04:55:28;;;;;;;25.15;17.70;;;18.20;99.90;;;;;;5086198;28;20493;-61
2021/06/03 04:57:55;;;;;;;27.25;17.63;;;18.20;99.90;;;;;;5083947;28;20024;-61
2021/06/03 05:00:26;;;;;;;27.40;17.42;;;18.20;99.90;;;;;;5091388;28;20032;-61
2021/06/03 05:02:53;;;;;;;28.15;18.52;;;18.20;99.90;;;;;;5086490;28;20027;-60
2021/06/03 05:05:19;;;;;;;26.83;16.48;;;18.40;99.90;;;;;;5079598;28;20036;-62
2021/06/03 05:07:46;;;;;;;26.50;17.45;;;18.50;99.90;;;;;;5077906;28;20017;-62
2021/06/03 05:10:14;;;;;;;29.98;17.70;;;18.60;99.90;;;;;;5083276;28;20082;-62
2021/06/03 05:12:40;;;;;;;33.25;19.70;;;18.60;99.90;;;;;;5083116;28;20503;-61
2021/06/03 05:15:07;;;;;;;35.40;20.10;;;18.70;99.90;;;;;;5089737;28;20031;-61
2021/06/03 05:17:34;;;;;;;34.00;21.13;;;18.70;99.90;;;;;;5082553;28;20074;-62
2021/06/03 05:20:00;;;;;;;34.53;21.35;;;18.80;99.90;;;;;;5087573;28;20500;-61
2021/06/03 05:22:26;;;;;;;38.38;22.48;;;18.90;99.90;;;;;;5080219;28;20033;-61
2021/06/03 05:24:52;;;;;;;38.60;23.52;;;19.00;99.90;;;;;;5070950;28;20120;-61
2021/06/03 05:27:18;;;;;;;36.00;22.30;;;19.10;99.90;;;;;;5085034;28;20102;-62
2021/06/03 05:29:43;;;;;;;44.83;22.75;;;19.10;99.90;;;;;;5077871;28;20028;-61
2021/06/03 05:32:09;;;;;;;39.70;24.13;;;19.10;99.90;;;;;;5086047;28;20496;-62
2021/06/03 05:34:35;;;;;;;33.10;21.98;;;19.20;99.90;;;;;;5067337;28;20028;-61
2021/06/03 05:37:02;;;;;;;38.95;22.42;;;19.20;99.90;;;;;;5087361;28;20031;-62
2021/06/03 05:39:29;;;;;;;47.17;25.08;;;19.30;99.90;;;;;;5078211;28;20112;-61
2021/06/03 05:41:54;;;;;;;44.05;23.67;;;19.30;99.90;;;;;;5083193;28;20035;-63
2021/06/03 05:44:20;;;;;;;42.70;24.10;;;19.30;99.90;;;;;;5089433;28;20055;-62
2021/06/03 05:46:46;;;;;;;40.55;24.63;;;19.40;99.90;;;;;;5091263;28;20032;-61
2021/06/03 05:49:12;;;;;;;46.08;25.25;;;19.40;99.90;;;;;;5071753;28;20028;-60
2021/06/03 05:51:40;;;;;;;57.55;25.88;;;19.20;99.90;;;;;;5090660;28;20371;-63
2021/06/03 05:54:07;;;;;;;46.95;24.10;;;19.20;99.90;;;;;;5089612;28;20474;-60
2021/06/03 05:56:32;;;;;;;49.22;26.30;;;19.30;99.90;;;;;;5084938;28;20033;-61
2021/06/03 05:58:58;;;;;;;49.28;26.60;;;19.20;99.90;;;;;;5080732;28;20028;-61
2021/06/03 06:01:25;;;;;;;48.08;25.88;;;19.30;99.90;;;;;;5062839;28;20035;-59
2021/06/03 06:06:26;;;;;;;50.67;27.48;;;19.60;99.90;;;;;;5079080;28;20032;-61
2021/06/03 06:08:59;;;;;;;44.42;26.88;;;19.80;99.90;;;;;;5088905;28;20490;-61
2021/06/03 06:11:28;;;;;;;47.53;26.48;;;19.90;99.90;;;;;;5090303;28;20040;-61
2021/06/03 06:13:54;;;;;;;47.92;27.67;;;20.00;99.90;;;;;;5087360;28;20024;-61
2021/06/03 06:16:20;;;;;;;51.63;28.52;;;20.00;99.90;;;;;;5075783;28;20510;-62
2021/06/03 06:18:46;;;;;;;47.10;26.45;;;20.10;99.90;;;;;;5082236;28;20185;-63
2021/06/03 06:21:15;;;;;;;45.10;26.50;;;20.10;99.90;;;;;;5082812;28;20389;-61
2021/06/03 06:23:42;;;;;;;51.47;27.45;;;20.20;99.90;;;;;;5087314;28;20133;-60
2021/06/03 06:26:09;;;;;;;51.78;28.48;;;20.10;99.90;;;;;;5079805;28;20475;-60
2021/06/03 06:28:36;;;;;;;50.05;27.15;;;20.20;99.90;;;;;;5089576;28;20028;-61
2021/06/03 06:31:03;;;;;;;50.63;28.48;;;20.30;99.90;;;;;;5085862;28;20118;-61
2021/06/03 06:33:29;;;;;;;51.17;28.23;;;20.20;99.90;;;;;;5090180;28;20050;-61
2021/06/03 06:35:54;;;;;;;52.35;27.15;;;20.30;99.90;;;;;;5081280;28;20029;-62
2021/06/03 06:38:22;;;;;;;44.55;25.48;;;20.20;99.90;;;;;;5087044;28;20063;-61
2021/06/03 06:40:50;;;;;;;52.92;28.63;;;20.10;99.90;;;;;;5093089;28;20078;-61
2021/06/03 06:43:17;;;;;;;43.30;27.40;;;20.10;99.90;;;;;;5075778;28;20024;-61
2021/06/03 06:45:44;;;;;;;56.25;27.80;;;20.10;99.90;;;;;;5088461;28;20379;-61
2021/06/03 06:48:11;;;;;;;44.08;26.52;;;20.10;99.90;;;;;;5085180;28;20031;-60
2021/06/03 06:50:38;;;;;;;52.80;27.88;;;20.20;99.90;;;;;;5087947;28;20111;-60
2021/06/03 06:53:05;;;;;;;40.85;24.95;;;20.30;99.90;;;;;;5081548;28;20032;-60
2021/06/03 06:55:32;;;;;;;49.83;27.15;;;20.30;99.90;;;;;;5093094;28;20039;-61
2021/06/03 06:57:59;;;;;;;45.55;26.42;;;20.30;99.90;;;;;;5084770;28;20016;-61
2021/06/03 07:00:27;;;;;;;40.42;24.50;;;20.30;99.90;;;;;;5084289;28;20063;-61
2021/06/03 07:02:54;;;;;;;49.05;25.17;;;20.40;99.90;;;;;;5086161;28;20028;-60
2021/06/03 07:05:21;;;;;;;46.20;25.42;;;20.50;99.90;;;;;;5080410;28;20059;-61
2021/06/03 07:07:46;;;;;;;42.17;23.83;;;20.60;99.90;;;;;;5073518;28;20104;-61
2021/06/03 07:10:12;;;;;;;38.55;22.13;;;20.60;99.90;;;;;;5085410;28;20119;-62
2021/06/03 07:12:39;;;;;;;37.05;22.25;;;20.80;99.90;;;;;;5082444;28;20028;-61
2021/06/03 07:15:09;;;;;;;36.85;22.35;;;20.90;99.90;;;;;;5074724;28;20097;-60
2021/06/03 07:17:35;;;;;;;37.97;22.33;;;21.20;99.90;;;;;;5086327;28;20032;-62
2021/06/03 07:20:06;;;;;;;38.50;20.10;;;21.50;99.90;;;;;;5092436;28;20028;-61
2021/06/03 07:22:32;;;;;;;38.95;20.80;;;21.50;99.90;;;;;;5083133;28;20032;-60
2021/06/03 07:24:57;;;;;;;35.72;21.35;;;21.60;99.90;;;;;;5084883;28;20052;-60
2021/06/03 07:27:23;;;;;;;35.47;20.60;;;21.90;99.90;;;;;;5092762;28;20474;-61
2021/06/03 07:29:49;;;;;;;36.72;20.05;;;22.10;99.90;;;;;;5086098;28;20485;-60
2021/06/03 07:32:15;;;;;;;42.88;22.45;;;22.10;99.90;;;;;;5073045;28;20078;-61
2021/06/03 07:34:40;;;;;;;43.47;20.88;;;22.20;99.90;;;;;;5082582;28;20028;-61
2021/06/03 07:37:06;;;;;;;35.03;20.80;;;22.40;99.90;;;;;;5071409;28;20028;-62
2021/06/03 07:39:32;;;;;;;38.13;20.83;;;22.30;99.90;;;;;;5079554;28;20025;-61
2021/06/03 07:41:58;;;;;;;36.58;21.25;;;22.40;99.90;;;;;;5079773;28;20028;-63
2021/06/03 07:44:24;;;;;;;47.58;22.95;;;22.60;99.90;;;;;;5080138;28;20040;-62
2021/06/03 07:46:49;;;;;;;30.17;19.17;;;22.50;99.90;;;;;;5093591;28;20443;-61
2021/06/03 07:49:15;;;;;;;29.13;18.17;;;22.70;99.90;;;;;;5089938;28;20056;-61
2021/06/03 07:51:42;;;;;;;25.83;17.33;;;22.70;99.90;;;;;;5074489;28;20035;-61
2021/06/03 07:54:08;;;;;;;30.75;19.40;;;22.70;99.90;;;;;;5074486;28;20476;-64
2021/06/03 07:56:35;;;;;;;31.35;18.08;;;22.90;99.90;;;;;;5090684;28;20036;-61
2021/06/03 07:59:01;;;;;;;27.98;17.27;;;22.80;99.90;;;;;;5090092;28;20043;-61
2021/06/03 08:01:27;;;;;;;27.38;16.73;;;22.80;99.90;;;;;;5077049;28;20052;-61
2021/06/03 08:03:53;;;;;;;26.27;16.63;;;22.70;99.90;;;;;;5091131;28;20363;-60
2021/06/03 08:06:19;;;;;;;25.75;16.77;;;22.80;99.90;;;;;;5090390;28;20117;-62
2021/06/03 08:08:45;;;;;;;30.67;17.05;;;22.90;99.90;;;;;;5086671;28;20085;-62
2021/06/03 08:11:11;;;;;;;25.60;15.80;;;22.60;99.90;;;;;;5070962;28;20048;-62
2021/06/03 08:13:37;;;;;;;26.23;15.57;;;22.30;99.90;;;;;;5071877;28;20103;-63
2021/06/03 08:16:04;;;;;;;21.33;15.93;;;22.30;99.90;;;;;;5073939;28;20035;-63
2021/06/03 08:18:29;;;;;;;28.85;16.05;;;22.30;99.90;;;;;;5077559;28;20116;-62
2021/06/03 08:20:59;;;;;;;24.70;15.48;;;22.20;99.90;;;;;;5081304;28;20094;-60
2021/06/03 08:23:27;;;;;;;25.38;14.82;;;22.00;99.90;;;;;;5075300;28;20037;-62
2021/06/03 08:25:55;;;;;;;26.23;15.32;;;22.00;99.90;;;;;;5071071;28;20052;-61
2021/06/03 08:28:21;;;;;;;23.85;14.05;;;22.10;99.90;;;;;;5074102;28;20040;-62
2021/06/03 08:30:47;;;;;;;29.92;15.80;;;22.10;99.90;;;;;;5071219;28;20035;-63
2021/06/03 08:33:13;;;;;;;27.45;15.90;;;22.10;99.90;;;;;;5073574;28;20029;-61
2021/06/03 08:35:39;;;;;;;28.30;15.93;;;22.00;99.90;;;;;;5071494;28;20102;-62
2021/06/03 08:38:08;;;;;;;27.83;15.25;;;21.90;99.90;;;;;;5072324;28;20131;-61
2021/06/03 08:40:37;;;;;;;27.25;16.40;;;21.90;99.90;;;;;;5072022;28;20025;-63
2021/06/03 08:43:05;;;;;;;32.00;17.40;;;21.90;99.90;;;;;;5083220;28;20153;-61
2021/06/03 08:45:35;;;;;;;26.63;15.77;;;21.90;99.90;;;;;;5081572;28;20028;-61
2021/06/03 08:48:01;;;;;;;24.25;16.15;;;22.10;99.90;;;;;;5073900;28;20028;-61
2021/06/03 08:50:30;;;;;;;29.35;17.23;;;22.40;99.90;;;;;;5077492;28;20086;-62
2021/06/03 08:52:56;;;;;;;26.05;17.48;;;22.80;99.90;;;;;;5091127;28;20059;-61
2021/06/03 08:58:11;;;;;;;21.92;13.90;;;23.70;99.90;;;;;;5066811;28;20039;-60
2021/06/03 09:00:39;;;;;;;20.38;11.98;;;24.10;99.90;;;;;;5071289;28;20089;-61
2021/06/03 09:03:05;;;;;;;25.85;14.10;;;24.30;99.90;;;;;;5070227;28;20086;-62
2021/06/03 09:05:31;;;;;;;29.80;13.85;;;24.60;99.90;;;;;;5070821;28;20047;-62
2021/06/03 09:07:58;;;;;;;23.20;13.23;;;24.80;99.90;;;;;;5071389;28;20474;-63
2021/06/03 09:10:34;;;;;;;20.65;11.60;;;25.00;99.90;;;;;;5070814;28;20036;-61
2021/06/03 09:13:09;;;;;;;18.50;12.55;;;24.70;99.90;;;;;;5071303;28;20052;-62
2021/06/03 09:15:35;;;;;;;20.48;12.77;;;24.40;99.90;;;;;;5069610;28;20035;-61
2021/06/03 09:18:02;;;;;;;18.58;12.52;;;24.70;99.90;;;;;;5074261;28;20500;-62
2021/06/03 09:20:28;;;;;;;17.63;11.73;;;25.00;99.90;;;;;;5082094;28;20032;-61
2021/06/03 09:22:55;;;;;;;24.75;12.73;;;25.20;99.90;;;;;;5071495;28;20029;-63
2021/06/03 09:25:32;;;;;;;20.98;11.63;;;25.00;99.90;;;;;;5068667;28;20436;-63
2021/06/03 09:28:16;;;;;;;23.55;12.20;;;24.80;99.90;;;;;;5076910;28;20028;-62
2021/06/03 09:30:50;;;;;;;16.88;10.27;;;25.00;99.90;;;;;;5071742;28;20036;-61
2021/06/03 09:33:16;;;;;;;16.50;10.35;;;25.30;99.90;;;;;;5073918;28;20067;-61
2021/06/03 09:35:56;;;;;;;21.50;10.90;;;25.60;99.90;;;;;;5078626;28;20656;-61
2021/06/03 09:38:22;;;;;;;20.20;10.68;;;25.70;99.90;;;;;;5079636;28;20494;-64
2021/06/03 09:40:49;;;;;;;21.95;11.20;;;25.70;99.90;;;;;;5070485;28;20093;-62
2021/06/03 09:43:22;;;;;;;15.55;11.20;;;25.40;99.90;;;;;;5086284;28;20032;-61
2021/06/03 09:45:58;;;;;;;16.88;10.93;;;25.10;99.90;;;;;;5068129;28;20070;-62
2021/06/03 09:48:37;;;;;;;19.30;11.38;;;25.00;99.90;;;;;;5064983;28;20067;-62
2021/06/03 09:51:26;;;;;;;20.00;10.95;;;25.10;99.90;;;;;;5069824;28;20041;-61
2021/06/03 09:53:57;;;;;;;21.17;10.43;;;24.80;99.90;;;;;;5064589;28;20037;-62
2021/06/03 09:56:25;;;;;;;15.77;10.63;;;24.80;99.90;;;;;;5062753;28;20032;-61
2021/06/03 09:58:52;;;;;;;15.65;9.63;;;25.10;99.90;;;;;;5070815;28;20036;-62
2021/06/03 10:01:39;;;;;;;15.15;9.43;;;25.40;99.90;;;;;;5072973;28;20016;-62
2021/06/03 10:04:06;;;;;;;16.58;9.20;;;25.50;99.90;;;;;;5071100;28;20471;-60
2021/06/03 10:06:32;;;;;;;15.77;9.02;;;25.90;99.90;;;;;;5072141;28;20493;-60
2021/06/03 10:08:58;;;;;;;14.32;8.60;;;25.80;99.90;;;;;;5070445;28;20024;-62
2021/06/03 10:11:46;;;;;;;20.50;9.75;;;26.10;99.90;;;;;;5069050;28;20048;-63
2021/06/03 10:14:17;;;;;;;11.02;7.75;;;26.20;99.90;;;;;;5071252;28;20024;-62
2021/06/03 10:16:43;;;;;;;16.77;8.50;;;26.20;99.90;;;;;;5068158;28;20104;-61
2021/06/03 10:19:26;;;;;;;18.38;9.05;;;26.30;99.90;;;;;;5071507;28;20055;-63
2021/06/03 10:22:18;;;;;;;16.33;8.77;;;26.10;99.90;;;;;;5063372;28;20031;-61
2021/06/03 10:24:55;;;;;;;12.20;8.18;;;25.60;99.90;;;;;;5059245;28;20036;-62
2021/06/03 10:27:24;;;;;;;13.25;8.32;;;25.40;99.90;;;;;;5071731;28;20051;-61
2021/06/03 10:29:51;;;;;;;14.85;8.38;;;25.10;99.90;;;;;;5077281;28;20036;-62
2021/06/03 10:32:20;;;;;;;13.07;8.43;;;25.00;99.90;;;;;;5079151;28;20134;-61
2021/06/03 10:34:46;;;;;;;13.88;8.85;;;25.00;99.90;;;;;;5072846;28;20032;-62
2021/06/03 10:37:15;;;;;;;22.42;9.93;;;25.00;99.90;;;;;;5068079;28;20605;-61
2021/06/03 10:39:44;;;;;;;16.20;8.70;;;25.00;99.90;;;;;;5079445;28;20040;-63
2021/06/03 10:42:12;;;;;;;15.63;8.93;;;24.80;99.90;;;;;;5079314;28;20445;-61
2021/06/03 10:44:40;;;;;;;13.90;8.15;;;24.80;99.90;;;;;;5078750;28;20501;-62
2021/06/03 10:47:08;;;;;;;17.60;8.43;;;25.00;99.90;;;;;;5076584;28;20028;-61
2021/06/03 10:49:35;;;;;;;11.93;8.38;;;25.10;99.90;;;;;;5074571;28;20043;-61
2021/06/03 10:52:07;;;;;;;14.40;8.68;;;25.20;99.90;;;;;;5069204;28;20031;-60
2021/06/03 10:54:50;;;;;;;16.83;10.02;;;25.00;99.90;;;;;;5075052;28;20033;-63
2021/06/03 10:57:19;;;;;;;15.70;9.20;;;25.20;99.90;;;;;;5065776;28;20025;-62
2021/06/03 10:59:46;;;;;;;16.98;9.10;;;25.30;99.90;;;;;;5068584;28;20029;-62
2021/06/03 11:02:13;;;;;;;14.75;8.88;;;25.40;99.90;;;;;;5076269;28;20016;-61
2021/06/03 11:04:41;;;;;;;13.80;8.75;;;25.40;99.90;;;;;;5075027;28;20097;-62
2021/06/03 11:07:09;;;;;;;16.00;8.93;;;25.30;99.90;;;;;;5069669;28;20035;-61
2021/06/03 11:09:44;;;;;;;15.00;8.27;;;25.30;99.90;;;;;;5081968;28;20028;-61
2021/06/03 11:12:18;;;;;;;12.90;8.05;;;25.30;99.90;;;;;;5072467;28;20029;-62
2021/06/03 11:15:06;;;;;;;15.18;8.13;;;25.60;99.90;;;;;;5079433;28;20151;-61
2021/06/03 11:17:51;;;;;;;13.32;8.38;;;25.70;99.90;;;;;;5073060;28;20782;-61
2021/06/03 11:20:35;;;;;;;14.40;8.15;;;26.00;99.90;;;;;;5073774;28;20028;-62
2021/06/03 11:23:35;;;;;;;13.80;8.43;;;26.20;99.90;;;;;;5071812;28;20028;-60
2021/06/03 11:26:02;;;;;;;12.90;7.55;;;26.30;99.90;;;;;;5067072;28;20056;-62
2021/06/03 11:28:28;;;;;;;24.00;8.52;;;26.20;99.90;;;;;;5071395;28;20113;-60
2021/06/03 11:30:54;;;;;;;16.27;8.98;;;26.00;99.90;;;;;;5076661;28;20482;-61
2021/06/03 11:33:20;;;;;;;14.05;8.45;;;25.90;99.90;;;;;;5071914;28;20278;-64
2021/06/03 11:35:46;;;;;;;16.10;9.18;;;25.80;99.90;;;;;;5076534;28;20338;-63
2021/06/03 11:38:41;;;;;;;21.75;12.38;;;26.00;99.90;;;;;;5073822;28;20020;-60
2021/06/03 11:41:32;;;;;;;13.50;8.98;;;26.20;99.90;;;;;;5068820;28;20027;-63
2021/06/03 11:44:12;;;;;;;14.85;9.48;;;26.00;99.90;;;;;;5070960;28;20028;-62
2021/06/03 11:46:49;;;;;;;20.48;11.00;;;25.90;99.90;;;;;;5078599;28;20025;-61
2021/06/03 11:49:38;;;;;;;15.13;9.40;;;25.80;99.90;;;;;;5068349;28;20111;-61
2021/06/03 11:52:20;;;;;;;17.17;9.70;;;25.70;99.90;;;;;;5056637;28;20036;-63
2021/06/03 11:54:58;;;;;;;11.63;8.82;;;25.60;99.90;;;;;;5075023;28;20389;-61
2021/06/03 11:57:26;;;;;;;14.00;9.35;;;25.70;99.90;;;;;;5082508;28;20032;-61
2021/06/03 12:00:02;;;;;;;16.30;10.13;;;25.60;99.90;;;;;;5072979;28;20020;-62
2021/06/03 12:02:30;;;;;;;20.33;10.40;;;25.40;99.90;;;;;;5071647;28;20054;-63
2021/06/03 12:07:40;;;;;;;16.38;9.73;;;25.60;99.90;;;;;;5077151;28;20382;-61
2021/06/03 12:10:06;;;;;;;20.05;9.40;;;25.60;99.90;;;;;;5079361;28;20782;-62
2021/06/03 12:12:32;;;;;;;20.65;9.80;;;25.60;99.90;;;;;;5071633;28;20024;-63
2021/06/03 12:14:58;;;;;;;12.73;8.80;;;25.50;99.90;;;;;;5072811;28;20021;-63
2021/06/03 12:17:24;;;;;;;12.68;8.80;;;25.30;99.90;;;;;;5069983;28;20034;-61
2021/06/03 12:19:52;;;;;;;10.63;7.68;;;25.30;99.90;;;;;;5076256;28;20032;-63
2021/06/03 12:22:21;;;;;;;15.90;8.27;;;25.40;99.90;;;;;;5069544;28;20435;-63
2021/06/03 12:24:49;;;;;;;14.75;8.23;;;25.40;99.90;;;;;;5062688;28;20032;-63
2021/06/03 12:27:35;;;;;;;14.98;8.65;;;25.40;99.90;;;;;;5067021;28;20024;-61
2021/06/03 12:30:17;;;;;;;14.05;8.80;;;25.30;99.90;;;;;;5084764;28;20041;-62
2021/06/03 12:33:01;;;;;;;19.10;8.68;;;25.40;99.90;;;;;;5082945;28;20478;-63
2021/06/03 12:35:46;;;;;;;13.57;8.73;;;25.40;99.90;;;;;;5068255;28;20036;-63
2021/06/03 12:38:38;;;;;;;16.25;8.60;;;25.50;99.90;;;;;;5073746;28;20089;-63
2021/06/03 12:41:27;;;;;;;11.88;8.65;;;25.70;99.90;;;;;;5073332;28;20027;-64
2021/06/03 12:43:58;;;;;;;14.05;9.45;;;25.60;99.90;;;;;;5082466;28;20066;-60
2021/06/03 12:46:52;;;;;;;14.38;9.77;;;25.40;99.90;;;;;;5065987;28;20032;-63
2021/06/03 12:49:23;;;;;;;21.80;10.45;;;25.20;99.90;;;;;;5070770;28;20037;-63